Time;durP1;ratioP1;P1;durP2;ratioP2;P2;SDS_P1;SDS_P2;PMS_P1;PMS_P2;Temp;Humidity;BMP_temperature;BMP_pressure;BME280_temperature;BME280_humidity;BME280_pressure;Samples;Min_cycle;Max_cycle;Signal;HPM_P1;HPM_P2
2023/01/12 00:05:14;;;;;;;11.70;5.60;;;;;;;4.12;88.33;98507.80;434091;1262;108967;-39
2023/01/12 00:25:41;;;;;;;8.40;5.00;;;;;;;4.24;88.75;98528.14;434095;1260;98031;-40
2023/01/12 00:35:48;;;;;;;10.10;5.70;;;;;;;4.25;88.95;98541.70;434169;1263;108129;-40
2023/01/12 00:45:55;;;;;;;11.00;5.40;;;;;;;4.31;89.09;98539.85;434033;1269;97925;-39
2023/01/12 00:56:01;;;;;;;15.70;9.60;;;;;;;4.30;89.48;98543.55;434090;1261;110774;-40
2023/01/12 01:06:06;;;;;;;15.30;8.50;;;;;;;4.24;89.76;98555.89;434222;1260;108437;-40
2023/01/12 01:16:16;;;;;;;14.10;8.60;;;;;;;4.22;89.70;98564.25;434078;1261;97877;-40
2023/01/12 01:26:25;;;;;;;14.00;8.60;;;;;;;4.28;89.94;98569.59;434158;1261;109800;-40
2023/01/12 01:36:32;;;;;;;9.30;7.50;;;;;;;4.37;90.02;98565.09;434082;1262;97925;-39
2023/01/12 01:46:38;;;;;;;14.60;6.60;;;;;;;4.42;90.24;98568.75;434023;1261;109574;-40
2023/01/12 01:56:46;;;;;;;11.20;7.10;;;;;;;4.51;90.52;98576.19;434053;1261;107894;-40
2023/01/12 02:16:59;;;;;;;10.40;7.70;;;;;;;4.60;90.69;98582.52;434072;1258;107668;-40
2023/01/12 02:27:46;;;;;;;11.90;8.30;;;;;;;4.63;90.82;98583.22;434028;1261;97012;-39
2023/01/12 02:37:51;;;;;;;10.40;8.20;;;;;;;4.67;91.06;98588.39;434204;1260;110029;-39
2023/01/12 02:47:56;;;;;;;9.60;8.40;;;;;;;4.69;91.14;98596.50;434996;1254;106791;-38
2023/01/12 02:58:07;;;;;;;13.10;8.50;;;;;;;4.74;91.35;98607.71;434126;1258;454096;-38
2023/01/12 03:08:20;;;;;;;7.20;5.80;;;;;;;4.79;91.38;98605.69;434439;1257;108389;-40
2023/01/12 03:18:28;;;;;;;9.10;7.30;;;;;;;4.77;91.38;98603.78;434381;1257;97483;-38
2023/01/12 03:28:33;;;;;;;7.80;7.00;;;;;;;4.76;91.50;98598.59;434425;1253;109859;-40
2023/01/12 03:38:45;;;;;;;10.90;7.80;;;;;;;4.79;91.74;98609.85;434482;1254;108813;-40
2023/01/12 03:48:57;;;;;;;14.10;11.00;;;;;;;4.78;91.86;98613.02;434449;1253;97053;-44
2023/01/12 03:59:05;;;;;;;18.20;12.20;;;;;;;4.66;92.06;98603.79;434362;1254;111607;-39
2023/01/12 04:09:13;;;;;;;14.00;11.20;;;;;;;4.62;91.99;98612.55;434351;1257;109657;-40
2023/01/12 04:19:19;;;;;;;14.60;10.80;;;;;;;4.67;91.99;98613.34;434386;1253;97934;-40
2023/01/12 04:29:27;;;;;;;13.60;9.80;;;;;;;4.73;92.15;98616.21;434393;1253;108187;-39
2023/01/12 04:39:34;;;;;;;13.60;11.20;;;;;;;4.76;92.29;98622.80;434366;1257;97507;-39
2023/01/12 04:49:41;;;;;;;21.10;12.00;;;;;;;4.78;92.47;98635.48;434229;1257;111785;-40
2023/01/12 04:59:48;;;;;;;24.00;12.90;;;;;;;4.82;92.52;98650.92;434389;1258;108461;-39
2023/01/12 05:20:19;;;;;;;15.50;11.70;;;;;;;4.80;92.39;98640.11;434368;1254;108608;-39
2023/01/12 05:30:27;;;;;;;25.80;16.40;;;;;;;4.69;92.69;98643.09;434450;1253;97905;-38
2023/01/12 05:40:37;;;;;;;23.10;16.50;;;;;;;4.54;92.73;98644.56;434517;1253;111466;-39
2023/01/12 05:50:45;;;;;;;24.80;16.00;;;;;;;4.43;92.52;98662.95;434344;1257;108436;-39
2023/01/12 06:00:52;;;;;;;22.80;13.80;;;;;;;4.38;92.57;98669.89;434456;1253;96648;-40
2023/01/12 06:11:00;;;;;;;20.20;13.00;;;;;;;4.38;92.76;98675.54;434479;1255;110479;-40
2023/01/12 06:21:08;;;;;;;18.00;13.20;;;;;;;4.35;92.58;98673.94;434306;1253;107876;-39
2023/01/12 06:31:15;;;;;;;22.70;14.90;;;;;;;4.27;92.64;98677.58;434471;1258;97236;-39
2023/01/12 06:51:47;;;;;;;32.70;21.10;;;;;;;4.01;92.54;98673.30;435040;1256;97909;-37
2023/01/12 07:01:54;;;;;;;23.70;16.70;;;;;;;3.95;92.71;98684.86;435210;1256;109594;-38
2023/01/12 07:12:02;;;;;;;28.60;18.10;;;;;;;3.89;92.63;98688.07;435248;1253;108704;-40
2023/01/12 07:22:10;;;;;;;50.90;28.90;;;;;;;3.77;92.69;98682.67;435252;1256;97868;-38
2023/01/12 07:32:17;;;;;;;42.30;24.50;;;;;;;3.59;92.73;98680.34;435346;1254;109529;-39
2023/01/12 07:42:25;;;;;;;21.90;17.40;;;;;;;3.51;92.76;98695.20;435434;1256;107830;-38
2023/01/12 07:52:32;;;;;;;26.50;17.70;;;;;;;3.59;93.05;98689.71;434430;1253;97899;-39
2023/01/12 08:02:39;;;;;;;30.80;16.50;;;;;;;3.98;93.58;98697.20;434333;1257;111438;-40
2023/01/12 08:12:46;;;;;;;20.20;15.00;;;;;;;4.98;94.14;98695.98;434328;1253;107794;-40
2023/01/12 08:22:58;;;;;;;26.00;15.90;;;;;;;6.30;94.37;98693.61;434515;1253;97564;-40
2023/01/12 08:33:05;;;;;;;32.60;20.40;;;;;;;6.29;92.99;98695.80;434676;1253;109890;-39
2023/01/12 08:43:12;;;;;;;29.30;19.40;;;;;;;7.25;94.20;98684.64;434372;1253;108222;-40
2023/01/12 09:03:26;;;;;;;25.10;16.50;;;;;;;7.03;92.27;98700.23;434385;1253;110812;-39
2023/01/12 09:13:34;;;;;;;17.00;12.50;;;;;;;7.05;92.60;98688.23;434413;1253;107306;-40
2023/01/12 09:23:42;;;;;;;22.30;13.50;;;;;;;7.14;92.22;98686.38;434519;1253;97501;-39
2023/01/12 09:33:50;;;;;;;24.00;15.60;;;;;;;7.11;92.16;98678.22;434438;1253;109341;-40
2023/01/12 09:54:23;;;;;;;15.10;10.70;;;;;;;7.36;91.55;98659.01;434343;1257;97519;-40
2023/01/12 10:04:30;;;;;;;15.20;10.20;;;;;;;7.63;91.54;98656.11;434441;1253;109246;-39
2023/01/12 10:15:07;;;;;;;17.60;11.30;;;;;;;7.70;90.98;98647.52;434418;1253;108254;-39
2023/01/12 10:25:14;;;;;;;18.20;10.80;;;;;;;7.65;90.34;98632.45;434405;1257;97878;-40
2023/01/12 10:35:23;;;;;;;30.80;12.30;;;;;;;7.83;90.42;98635.14;434336;1259;108201;-40
2023/01/12 10:45:30;;;;;;;22.90;14.10;;;;;;;7.85;90.11;98628.09;434416;1253;98215;-40
2023/01/12 10:55:41;;;;;;;19.20;12.00;;;;;;;7.74;89.58;98616.20;434479;1257;109601;-40
2023/01/12 11:05:48;;;;;;;16.20;11.30;;;;;;;7.74;89.49;98613.11;434354;1254;107469;-40
2023/01/12 11:15:53;;;;;;;27.70;14.40;;;;;;;7.80;89.41;98598.68;434646;1256;97249;-38
2023/01/12 11:26:08;;;;;;;21.20;12.00;;;;;;;7.75;89.11;98576.34;434422;1253;106631;-39
2023/01/12 11:36:19;;;;;;;20.50;12.10;;;;;;;7.81;88.61;98557.25;434403;1256;97490;-39
2023/01/12 11:46:28;;;;;;;15.80;9.30;;;;;;;7.93;88.57;98540.34;434403;1257;110208;-39
2023/01/12 11:56:44;;;;;;;15.00;7.60;;;;;;;7.93;88.27;98537.79;434517;1253;106695;-38
2023/01/12 12:07:00;;;;;;;12.40;7.80;;;;;;;7.90;87.99;98539.63;434486;1253;97681;-40
2023/01/12 12:17:08;;;;;;;15.30;8.00;;;;;;;7.87;87.62;98527.48;435124;1258;110604;-40
2023/01/12 12:27:13;;;;;;;11.20;6.80;;;;;;;7.95;87.43;98532.52;434519;1259;108182;-41
2023/01/12 12:37:20;;;;;;;14.90;7.60;;;;;;;7.95;87.21;98532.67;434622;1259;97903;-39
2023/01/12 12:47:32;;;;;;;13.80;7.00;;;;;;;7.84;86.83;98526.45;434622;1258;109623;-40
2023/01/12 12:58:09;;;;;;;14.90;6.50;;;;;;;7.83;86.49;98519.93;434568;1258;107891;-40
2023/01/12 13:08:27;;;;;;;18.50;7.10;;;;;;;7.83;86.12;98507.86;434586;1257;97716;-40
2023/01/12 13:28:48;;;;;;;13.20;7.20;;;;;;;7.67;85.72;98481.55;434593;1259;108050;-40
2023/01/12 13:38:59;;;;;;;14.40;8.30;;;;;;;7.62;85.39;98478.67;434593;1253;97897;-40
2023/01/12 13:49:22;;;;;;;11.60;7.20;;;;;;;7.59;85.21;98474.97;434638;1253;108868;-40
2023/01/12 13:59:29;;;;;;;16.50;9.10;;;;;;;7.44;84.94;98477.33;434695;1259;107364;-39
2023/01/12 14:09:36;;;;;;;17.00;10.00;;;;;;;7.20;84.73;98467.00;434559;1259;97790;-39
2023/01/12 14:19:49;;;;;;;19.10;7.80;;;;;;;6.96;84.74;98460.77;434745;1259;109842;-40
2023/01/12 14:29:56;;;;;;;17.90;7.70;;;;;;;6.75;84.56;98456.20;434725;1253;107713;-40
2023/01/12 14:40:04;;;;;;;31.80;11.20;;;;;;;6.56;84.75;98447.31;434672;1253;118401;-40
2023/01/12 14:50:15;;;;;;;24.30;11.70;;;;;;;6.33;84.73;98444.02;434655;1259;107169;-39
2023/01/12 15:00:26;;;;;;;16.20;7.40;;;;;;;6.18;84.92;98430.59;434511;1259;351681;-40
2023/01/12 15:10:36;;;;;;;17.40;8.80;;;;;;;6.08;84.90;98435.36;434798;1253;109910;-40
2023/01/12 15:51:45;;;;;;;20.80;8.20;;;;;;;5.48;85.27;98429.16;434719;1257;107302;-40
2023/01/12 16:01:53;;;;;;;16.90;8.80;;;;;;;5.45;85.31;98425.23;434764;1259;97874;-40
2023/01/12 16:12:00;;;;;;;20.50;10.20;;;;;;;5.39;85.36;98418.28;434581;1259;110446;-39
2023/01/12 16:22:09;;;;;;;18.10;8.80;;;;;;;5.36;85.60;98417.27;434611;1259;109401;-39
2023/01/12 16:32:17;;;;;;;30.70;15.00;;;;;;;5.36;85.73;98410.58;434716;1253;97893;-40
2023/01/12 16:42:25;;;;;;;19.60;10.50;;;;;;;5.36;85.69;98406.30;434733;1259;107684;-41
2023/01/12 16:52:32;;;;;;;24.60;10.00;;;;;;;5.40;85.69;98403.08;434675;1259;97006;-40
2023/01/12 17:02:41;;;;;;;16.20;10.00;;;;;;;5.37;85.62;98397.11;434570;1262;110784;-40
2023/01/12 17:12:48;;;;;;;26.40;12.30;;;;;;;5.29;85.63;98403.61;434766;1254;109068;-40
2023/01/12 17:23:04;;;;;;;35.20;16.00;;;;;;;5.15;85.56;98397.86;434648;1259;97978;-39
2023/01/12 17:33:12;;;;;;;20.50;8.50;;;;;;;5.06;85.43;98397.86;434584;1259;110294;-40
2023/01/12 17:43:18;;;;;;;19.50;10.50;;;;;;;5.06;85.66;98391.57;434530;1253;107937;-39
2023/01/12 17:53:25;;;;;;;32.50;15.00;;;;;;;5.09;85.66;98390.23;434585;1259;97901;-40
2023/01/12 18:03:33;;;;;;;34.00;15.20;;;;;;;5.06;85.77;98386.25;434616;1259;107337;-39
2023/01/12 18:13:41;;;;;;;37.90;18.10;;;;;;;5.00;85.83;98379.27;434586;1259;97916;-39
2023/01/12 18:44:06;;;;;;;25.60;10.60;;;;;;;4.93;85.90;98352.27;434615;1259;97171;-40
2023/01/12 18:54:13;;;;;;;30.20;11.80;;;;;;;4.92;86.00;98350.67;434649;1258;107337;-40
2023/01/12 19:04:30;;;;;;;22.20;11.90;;;;;;;4.84;86.13;98340.67;434454;1259;97911;-41
2023/01/12 19:35:27;;;;;;;22.20;7.80;;;;;;;4.92;86.20;98329.42;434482;1259;97912;-43
2023/01/12 19:55:43;;;;;;;28.50;11.90;;;;;;;4.83;86.36;98325.35;434546;1258;97596;-40
2023/01/12 20:05:51;;;;;;;22.40;9.60;;;;;;;4.78;86.26;98332.21;434466;1254;98024;-39
2023/01/12 20:15:59;;;;;;;20.30;8.70;;;;;;;4.79;86.38;98330.92;434529;1259;108699;-39
2023/01/12 20:26:06;;;;;;;25.80;14.40;;;;;;;4.83;86.29;98332.90;434344;1267;96604;-40
2023/01/12 20:36:12;;;;;;;27.00;12.60;;;;;;;4.80;86.42;98328.91;434407;1266;109841;-39
2023/01/12 20:46:19;;;;;;;26.00;14.00;;;;;;;4.72;86.64;98326.99;434482;1254;108725;-39
2023/01/12 20:56:27;;;;;;;18.70;9.10;;;;;;;4.65;86.54;98323.75;434448;1255;96636;-40
2023/01/12 21:06:34;;;;;;;17.80;7.10;;;;;;;4.66;86.73;98324.36;434393;1266;108280;-39
2023/01/12 21:16:41;;;;;;;16.70;8.10;;;;;;;4.69;86.64;98317.83;434460;1257;97803;-40
2023/01/12 21:26:48;;;;;;;17.40;8.30;;;;;;;4.64;86.86;98314.29;434388;1254;111595;-39
2023/01/12 21:36:55;;;;;;;16.40;7.90;;;;;;;4.57;87.12;98316.34;434283;1260;106855;-39
2023/01/12 21:47:03;;;;;;;12.10;6.30;;;;;;;4.56;87.05;98312.19;434317;1254;97891;-40
2023/01/12 21:57:11;;;;;;;13.50;4.70;;;;;;;4.59;87.03;98304.94;434360;1254;108439;-39
2023/01/12 22:07:18;;;;;;;9.80;4.00;;;;;;;4.66;87.20;98296.20;434278;1257;97919;-41
2023/01/12 22:17:26;;;;;;;17.90;6.00;;;;;;;4.71;87.36;98286.86;434387;1257;110430;-40
2023/01/12 22:27:32;;;;;;;16.90;5.50;;;;;;;4.68;87.54;98283.39;434285;1257;107274;-40
2023/01/12 22:37:40;;;;;;;9.70;4.40;;;;;;;4.64;87.48;98289.06;434331;1254;96640;-39
2023/01/12 22:57:56;;;;;;;;;;;;;;;4.71;87.71;98271.50;434286;1257;97895;-41
2023/01/12 23:08:04;;;;;;;14.20;3.70;;;;;;;4.75;87.80;98272.02;434368;1257;111573;-39
2023/01/12 23:18:12;;;;;;;11.60;5.80;;;;;;;4.69;88.05;98274.69;434306;1254;108646;-39
2023/01/12 23:28:19;;;;;;;11.10;3.90;;;;;;;4.59;88.09;98271.39;434282;1257;97742;-39
2023/01/12 23:38:27;;;;;;;8.70;5.10;;;;;;;4.58;88.12;98258.25;434337;1258;109743;-40
2023/01/12 23:48:34;;;;;;;8.20;3.90;;;;;;;4.62;88.26;98256.60;434340;1257;107040;-39
2023/01/12 23:58:42;;;;;;;7.20;3.90;;;;;;;4.67;88.43;98255.02;434334;1254;97973;-39
